createdAt,value
2023-03-05T00:00:06.014Z,6.85
2023-03-05T00:03:07.354Z,7.00
2023-03-05T00:06:09.212Z,6.80
2023-03-05T00:09:10.506Z,9.73
2023-03-05T00:12:12.033Z,8.35
2023-03-05T00:15:13.370Z,6.90
2023-03-05T00:18:14.639Z,8.85
2023-03-05T00:21:18.518Z,7.65
2023-03-05T00:24:19.841Z,7.38
2023-03-05T00:27:21.174Z,5.85
2023-03-05T00:30:22.492Z,8.55
2023-03-05T00:33:23.806Z,7.03
2023-03-05T00:36:25.708Z,8.60
2023-03-05T00:39:27.009Z,7.20
2023-03-05T00:42:28.286Z,7.28
2023-03-05T00:45:29.662Z,7.60
2023-03-05T00:48:31.111Z,6.20
2023-03-05T00:51:32.509Z,7.55
2023-03-05T00:54:33.785Z,5.53
2023-03-05T00:57:35.028Z,5.43
2023-03-05T01:00:36.437Z,5.25
2023-03-05T01:03:37.683Z,5.70
2023-03-05T01:06:42.688Z,6.93
2023-03-05T01:09:43.989Z,6.03
2023-03-05T01:12:45.283Z,7.00
2023-03-05T01:15:48.535Z,6.57
2023-03-05T01:18:49.845Z,6.07
2023-03-05T01:21:51.130Z,6.20
2023-03-05T01:24:53.087Z,7.65
2023-03-05T01:27:54.586Z,6.22
2023-03-05T01:30:56.242Z,7.45
2023-03-05T01:33:57.576Z,6.85
2023-03-05T01:36:58.846Z,6.13
2023-03-05T01:40:00.172Z,7.70
2023-03-05T01:43:08.539Z,8.15
2023-03-05T01:46:12.879Z,7.20
2023-03-05T01:49:23.591Z,5.85
2023-03-05T01:52:25.283Z,7.95
2023-03-05T01:55:27.809Z,6.97
2023-03-05T01:58:29.317Z,6.20
2023-03-05T02:01:32.309Z,6.20
2023-03-05T02:04:43.162Z,5.68
2023-03-05T02:07:45.157Z,6.38
2023-03-05T02:10:50.741Z,6.03
2023-03-05T02:13:52.393Z,9.40
2023-03-05T02:16:53.820Z,5.95
2023-03-05T02:19:56.942Z,6.20
2023-03-05T02:22:58.302Z,5.95
2023-03-05T02:26:00.181Z,5.40
2023-03-05T02:29:02.894Z,7.63
2023-03-05T02:32:04.453Z,7.82
2023-03-05T02:35:06.239Z,6.07
2023-03-05T02:38:07.577Z,7.80
2023-03-05T02:41:08.887Z,7.22
2023-03-05T02:44:10.199Z,7.00
2023-03-05T02:47:11.480Z,5.57
2023-03-05T02:50:12.875Z,5.80
2023-03-05T02:53:14.294Z,5.38
2023-03-05T02:56:15.563Z,6.65
2023-03-05T02:59:16.853Z,8.32
2023-03-05T03:02:18.182Z,6.10
2023-03-05T03:05:19.561Z,7.05
2023-03-05T03:08:20.853Z,5.45
2023-03-05T03:11:22.136Z,6.63
2023-03-05T03:14:23.422Z,6.13
2023-03-05T03:17:24.742Z,5.03
2023-03-05T03:20:26.118Z,6.95
2023-03-05T03:23:27.732Z,5.28
2023-03-05T03:26:29.085Z,6.15
2023-03-05T03:29:30.813Z,5.70
2023-03-05T03:32:32.749Z,5.50
2023-03-05T03:35:34.165Z,6.65
2023-03-05T03:38:35.462Z,8.13
2023-03-05T03:41:37.500Z,7.53
2023-03-05T03:44:38.842Z,5.45
2023-03-05T03:47:40.224Z,5.80
2023-03-05T03:50:41.855Z,4.75
2023-03-05T03:53:43.156Z,6.43
2023-03-05T03:56:44.494Z,6.30
2023-03-05T03:59:46.048Z,7.82
2023-03-05T04:02:47.475Z,5.43
2023-03-05T04:05:48.750Z,5.88
2023-03-05T04:08:50.098Z,4.50
2023-03-05T04:11:51.402Z,5.50
2023-03-05T04:14:52.745Z,5.72
2023-03-05T04:17:54.086Z,6.90
2023-03-05T04:20:55.361Z,5.60
2023-03-05T04:23:56.602Z,5.97
2023-03-05T04:26:57.899Z,6.78
2023-03-05T04:29:59.334Z,5.60
2023-03-05T04:33:00.622Z,5.15
2023-03-05T04:36:02.041Z,5.95
2023-03-05T04:39:03.546Z,6.18
2023-03-05T04:42:04.973Z,6.57
2023-03-05T04:45:07.631Z,6.78
2023-03-05T04:48:09.589Z,5.72
2023-03-05T04:51:10.898Z,4.93
2023-03-05T04:54:12.211Z,6.57
2023-03-05T04:57:13.599Z,5.55
2023-03-05T05:00:16.658Z,7.13
2023-03-05T05:03:18.057Z,6.05
2023-03-05T05:06:19.351Z,6.80
2023-03-05T05:09:20.662Z,7.32
2023-03-05T05:12:22.001Z,5.93
2023-03-05T05:15:23.446Z,6.13
2023-03-05T05:18:25.024Z,6.55
2023-03-05T05:21:26.322Z,5.93
2023-03-05T05:24:27.874Z,7.05
2023-03-05T05:27:29.200Z,4.88
2023-03-05T05:30:30.495Z,6.40
2023-03-05T05:33:31.741Z,6.95
2023-03-05T05:36:33.054Z,6.53
2023-03-05T05:39:34.952Z,5.47
2023-03-05T05:42:36.240Z,5.20
2023-03-05T05:45:38.346Z,5.53
2023-03-05T05:48:40.080Z,6.80
2023-03-05T05:51:41.379Z,7.28
2023-03-05T05:54:42.775Z,6.10
2023-03-05T05:57:44.122Z,5.63
2023-03-05T06:00:45.477Z,6.97
2023-03-05T06:03:47.218Z,7.10
2023-03-05T06:06:48.530Z,5.68
2023-03-05T06:09:49.813Z,6.60
2023-03-05T06:12:51.131Z,6.38
2023-03-05T06:15:59.109Z,6.40
2023-03-05T06:19:04.460Z,6.35
2023-03-05T06:22:05.894Z,7.13
2023-03-05T06:25:07.855Z,6.65
2023-03-05T06:28:09.107Z,6.68
2023-03-05T06:31:14.743Z,5.68
2023-03-05T06:34:16.058Z,5.97
2023-03-05T06:37:17.338Z,6.75
2023-03-05T06:40:18.686Z,5.95
2023-03-05T06:43:19.938Z,5.93
2023-03-05T06:46:21.317Z,6.65
2023-03-05T06:49:22.640Z,6.28
2023-03-05T06:52:23.904Z,7.18
2023-03-05T06:55:25.227Z,6.10
2023-03-05T06:58:26.564Z,9.73
2023-03-05T07:01:27.889Z,10.70
2023-03-05T07:04:29.236Z,7.70
2023-03-05T07:07:30.538Z,6.85
2023-03-05T07:10:31.978Z,7.93
2023-03-05T07:13:33.249Z,6.80
2023-03-05T07:16:35.161Z,5.63
2023-03-05T07:19:37.746Z,5.63
2023-03-05T07:22:39.447Z,4.82
2023-03-05T07:25:40.787Z,5.93
2023-03-05T07:28:42.658Z,7.93
2023-03-05T07:31:43.932Z,5.28
2023-03-05T07:34:45.301Z,5.75
2023-03-05T07:37:46.872Z,7.88
2023-03-05T07:40:48.311Z,7.22
2023-03-05T07:43:50.883Z,5.97
2023-03-05T07:46:52.254Z,5.38
2023-03-05T07:49:53.661Z,6.50
2023-03-05T07:52:54.997Z,5.82
2023-03-05T07:55:56.380Z,6.28
2023-03-05T07:59:01.847Z,5.47
2023-03-05T08:02:03.141Z,5.68
2023-03-05T08:05:04.594Z,6.90
2023-03-05T08:08:06.392Z,5.43
2023-03-05T08:11:09.387Z,5.05
2023-03-05T08:14:11.590Z,6.18
2023-03-05T08:17:12.858Z,5.60
2023-03-05T08:20:14.304Z,6.93
2023-03-05T08:23:15.785Z,5.88
2023-03-05T08:26:18.451Z,5.72
2023-03-05T08:29:19.695Z,5.80
2023-03-05T08:32:21.364Z,4.88
2023-03-05T08:35:23.256Z,4.65
2023-03-05T08:38:24.686Z,4.38
2023-03-05T08:41:26.080Z,4.50
2023-03-05T08:44:27.774Z,4.80
2023-03-05T08:47:29.121Z,4.07
2023-03-05T08:50:30.455Z,3.00
2023-03-05T08:53:31.747Z,3.47
2023-03-05T08:56:34.276Z,3.25
2023-03-05T08:59:35.583Z,3.95
2023-03-05T09:02:37.239Z,2.83
2023-03-05T09:05:39.210Z,3.17
2023-03-05T09:08:41.181Z,3.25
2023-03-05T09:11:42.469Z,3.00
2023-03-05T09:14:43.886Z,3.05
2023-03-05T09:17:45.122Z,2.17
2023-03-05T09:20:46.445Z,3.05
2023-03-05T09:23:47.825Z,2.15
2023-03-05T09:26:49.142Z,2.30
2023-03-05T09:29:50.487Z,2.67
2023-03-05T09:32:51.924Z,1.65
2023-03-05T09:35:53.293Z,2.60
2023-03-05T09:38:55.033Z,2.33
2023-03-05T09:42:20.208Z,1.55
2023-03-05T09:45:30.458Z,1.90
2023-03-05T09:48:31.798Z,1.55
2023-03-05T09:51:36.578Z,1.80
2023-03-05T09:57:41.406Z,2.15
2023-03-05T10:00:45.241Z,3.17
2023-03-05T10:03:53.577Z,2.30
2023-03-05T10:07:13.493Z,2.00
2023-03-05T10:10:33.388Z,2.50
2023-03-05T10:13:39.474Z,2.33
2023-03-05T10:17:01.598Z,2.42
2023-03-05T10:20:11.044Z,2.15
2023-03-05T10:23:24.706Z,2.15
2023-03-05T10:26:37.537Z,2.03
2023-03-05T10:29:38.821Z,1.63
2023-03-05T10:32:55.667Z,2.40
2023-03-05T10:35:57.087Z,2.22
2023-03-05T10:39:13.690Z,2.65
2023-03-05T10:42:41.102Z,2.33
2023-03-05T10:45:43.893Z,1.77
2023-03-05T10:48:49.943Z,2.20
2023-03-05T10:51:53.832Z,2.08
2023-03-05T10:54:55.189Z,1.75
2023-03-05T10:57:56.542Z,2.35
2023-03-05T11:01:17.845Z,2.22
2023-03-05T11:04:26.677Z,2.20
2023-03-05T11:07:33.110Z,1.65
2023-03-05T11:10:34.465Z,2.60
2023-03-05T11:13:43.437Z,2.60
2023-03-05T11:16:49.012Z,1.90
2023-03-05T11:19:51.460Z,3.45
2023-03-05T11:23:13.032Z,2.88
2023-03-05T11:26:14.285Z,2.28
2023-03-05T11:29:17.438Z,1.90
2023-03-05T11:32:23.817Z,2.33
2023-03-05T11:35:32.312Z,1.48
2023-03-05T11:38:35.042Z,1.73
2023-03-05T11:41:55.268Z,1.40
2023-03-05T11:44:56.783Z,2.30
2023-03-05T11:48:18.428Z,2.58
2023-03-05T11:51:22.539Z,1.77
2023-03-05T11:54:28.744Z,2.05
2023-03-05T11:57:35.256Z,1.65
2023-03-05T12:00:41.443Z,1.40
2023-03-05T12:03:43.896Z,2.95
2023-03-05T12:06:47.019Z,2.10
2023-03-05T12:09:52.822Z,1.90
2023-03-05T12:13:00.105Z,2.13
2023-03-05T12:16:16.485Z,1.83
2023-03-05T12:19:38.815Z,1.63
2023-03-05T12:22:41.311Z,2.00
2023-03-05T12:25:50.302Z,1.52
2023-03-05T12:28:55.541Z,1.40
2023-03-05T12:31:57.339Z,3.13
2023-03-05T12:34:59.645Z,2.65
2023-03-05T12:38:06.186Z,2.03
2023-03-05T12:41:25.413Z,2.80
2023-03-05T12:44:27.812Z,2.20
2023-03-05T12:47:29.171Z,1.98
2023-03-05T12:50:31.100Z,2.25
2023-03-05T12:53:57.454Z,1.92
2023-03-05T12:57:02.021Z,1.60
2023-03-05T13:00:11.108Z,2.25
2023-03-05T13:03:16.891Z,1.83
2023-03-05T13:06:29.354Z,1.63
2023-03-05T13:09:33.610Z,1.60
2023-03-05T13:12:35.469Z,2.38
2023-03-05T13:15:36.976Z,1.77
2023-03-05T13:18:40.044Z,1.48
2023-03-05T13:21:41.475Z,2.13
2023-03-05T13:24:42.968Z,1.75
2023-03-05T13:27:44.392Z,2.53
2023-03-05T13:30:51.241Z,1.30
2023-03-05T13:33:54.260Z,1.83
2023-03-05T13:36:57.663Z,2.10
2023-03-05T13:40:07.108Z,2.75
2023-03-05T13:43:09.407Z,2.20
2023-03-05T13:46:10.751Z,1.90
2023-03-05T13:49:21.177Z,2.30
2023-03-05T13:52:29.888Z,1.63
2023-03-05T13:55:31.258Z,1.48
2023-03-05T13:58:49.479Z,1.60
2023-03-05T14:01:51.532Z,1.70
2023-03-05T14:04:53.012Z,2.53
2023-03-05T14:07:56.717Z,2.15
2023-03-05T14:10:59.913Z,1.67
2023-03-05T14:14:16.684Z,2.00
2023-03-05T14:17:32.068Z,1.92
2023-03-05T14:20:33.672Z,2.00
2023-03-05T14:23:40.018Z,2.08
2023-03-05T14:26:48.258Z,2.50
2023-03-05T14:29:50.027Z,1.33
2023-03-05T14:32:53.748Z,2.10
2023-03-05T14:35:55.765Z,2.20
2023-03-05T14:38:57.765Z,2.10
2023-03-05T14:42:14.540Z,2.08
2023-03-05T14:45:16.996Z,1.95
2023-03-05T14:48:21.054Z,1.58
2023-03-05T14:51:22.554Z,1.70
2023-03-05T14:54:24.903Z,1.73
2023-03-05T14:57:27.470Z,1.90
2023-03-05T15:00:28.950Z,3.08
2023-03-05T15:03:30.237Z,2.70
2023-03-05T15:06:33.355Z,2.05
2023-03-05T15:09:34.707Z,2.00
2023-03-05T15:12:36.008Z,3.35
2023-03-05T15:15:38.519Z,2.53
2023-03-05T15:18:39.802Z,1.55
2023-03-05T15:21:41.348Z,2.03
2023-03-05T15:24:42.730Z,1.52
2023-03-05T15:27:44.859Z,1.80
2023-03-05T15:30:47.175Z,2.20
2023-03-05T15:33:48.531Z,1.98
2023-03-05T15:36:49.861Z,1.90
2023-03-05T15:39:51.400Z,2.15
2023-03-05T15:42:52.741Z,2.38
2023-03-05T15:45:54.179Z,2.47
2023-03-05T15:48:55.469Z,2.40
2023-03-05T15:51:57.019Z,1.58
2023-03-05T15:54:59.561Z,2.25
2023-03-05T15:58:00.917Z,2.60
2023-03-05T16:01:02.238Z,2.17
2023-03-05T16:04:04.076Z,3.03
2023-03-05T16:07:05.976Z,2.80
2023-03-05T16:10:10.558Z,2.42
2023-03-05T16:13:13.319Z,2.03
2023-03-05T16:16:14.967Z,2.67
2023-03-05T16:19:17.736Z,2.47
2023-03-05T16:22:18.984Z,2.30
2023-03-05T16:25:21.891Z,2.17
2023-03-05T16:28:23.198Z,2.45
2023-03-05T16:31:28.788Z,2.50
2023-03-05T16:34:30.409Z,2.85
2023-03-05T16:37:31.697Z,3.10
2023-03-05T16:41:05.590Z,1.98
2023-03-05T16:43:58.507Z,2.42
2023-03-05T16:47:00.002Z,2.22
2023-03-05T16:50:01.329Z,2.30
2023-03-05T16:53:02.930Z,1.83
2023-03-05T16:56:04.728Z,3.10
2023-03-05T16:59:06.031Z,2.80
2023-03-05T17:02:07.901Z,2.20
2023-03-05T17:05:09.281Z,4.13
2023-03-05T17:08:10.625Z,4.03
2023-03-05T17:11:12.749Z,3.03
2023-03-05T17:14:14.079Z,4.63
2023-03-05T17:17:15.341Z,3.75
2023-03-05T17:20:17.126Z,2.85
2023-03-05T17:23:18.442Z,2.33
2023-03-05T17:26:20.072Z,3.00
2023-03-05T17:29:23.090Z,2.47
2023-03-05T17:32:24.438Z,3.45
2023-03-05T17:35:25.859Z,3.25
2023-03-05T17:38:27.486Z,4.45
2023-03-05T17:41:28.880Z,5.22
2023-03-05T17:44:30.265Z,2.50
2023-03-05T17:47:33.052Z,8.27
2023-03-05T17:50:35.079Z,6.63
2023-03-05T17:53:38.787Z,6.30
2023-03-05T17:56:40.113Z,6.50
2023-03-05T17:59:43.185Z,5.82
2023-03-05T18:02:45.869Z,5.20
2023-03-05T18:05:47.125Z,4.10
2023-03-05T18:08:48.508Z,4.80
2023-03-05T18:11:49.826Z,4.75
2023-03-05T18:14:51.302Z,3.88
2023-03-05T18:17:52.609Z,4.30
2023-03-05T18:20:53.913Z,3.20
2023-03-05T18:23:55.350Z,4.30
2023-03-05T18:26:56.654Z,3.53
2023-03-05T18:29:58.038Z,3.78
2023-03-05T18:32:59.517Z,3.88
2023-03-05T18:36:00.844Z,3.13
2023-03-05T18:39:02.210Z,2.22
2023-03-05T18:42:03.607Z,2.53
2023-03-05T18:45:06.134Z,2.72
2023-03-05T18:48:07.475Z,2.80
2023-03-05T18:51:16.392Z,3.20
2023-03-05T18:54:17.750Z,4.13
2023-03-05T18:57:19.048Z,3.13
2023-03-05T19:00:24.655Z,3.20
2023-03-05T19:03:26.026Z,3.90
2023-03-05T19:06:27.345Z,3.65
2023-03-05T19:09:47.659Z,3.88
2023-03-05T19:12:55.429Z,4.95
2023-03-05T19:15:57.024Z,4.30
2023-03-05T19:19:16.595Z,3.65
2023-03-05T19:22:18.154Z,3.75
2023-03-05T19:25:19.528Z,3.70
2023-03-05T19:28:21.798Z,4.28
2023-03-05T19:31:23.208Z,5.13
2023-03-05T19:34:24.591Z,4.82
2023-03-05T19:37:26.093Z,5.10
2023-03-05T19:40:27.447Z,5.70
2023-03-05T19:43:28.753Z,4.03
2023-03-05T19:46:30.239Z,3.75
2023-03-05T19:49:31.639Z,4.20
2023-03-05T19:52:33.021Z,2.95
2023-03-05T19:55:38.392Z,3.00
2023-03-05T19:58:45.182Z,4.30
2023-03-05T20:01:47.107Z,3.13
2023-03-05T20:04:49.009Z,3.03
2023-03-05T20:07:50.340Z,5.07
2023-03-05T20:10:51.645Z,3.50
2023-03-05T20:13:53.625Z,4.53
2023-03-05T20:16:54.971Z,4.15
2023-03-05T20:19:58.997Z,5.13
2023-03-05T20:23:00.458Z,5.03
2023-03-05T20:26:03.513Z,6.22
2023-03-05T20:29:05.246Z,4.90
2023-03-05T20:32:06.646Z,4.20
2023-03-05T20:35:08.720Z,3.53
2023-03-05T20:38:21.625Z,3.72
2023-03-05T20:41:23.728Z,3.83
2023-03-05T20:44:25.153Z,4.13
2023-03-05T20:47:37.481Z,3.72
2023-03-05T20:50:39.876Z,4.57
2023-03-05T20:53:41.450Z,4.80
2023-03-05T20:56:43.486Z,3.58
2023-03-05T20:59:44.755Z,3.65
2023-03-05T21:02:46.121Z,2.25
2023-03-05T21:05:47.665Z,5.30
2023-03-05T21:08:49.045Z,3.75
2023-03-05T21:11:50.414Z,3.70
2023-03-05T21:14:51.727Z,3.83
2023-03-05T21:17:53.506Z,4.03
2023-03-05T21:20:54.944Z,5.45
2023-03-05T21:23:56.318Z,3.55
2023-03-05T21:26:57.664Z,4.28
2023-03-05T21:29:59.099Z,4.03
2023-03-05T21:33:05.104Z,3.88
2023-03-05T21:36:07.225Z,4.05
2023-03-05T21:39:08.561Z,3.08
2023-03-05T21:42:10.258Z,3.70
2023-03-05T21:45:13.405Z,4.55
2023-03-05T21:48:15.454Z,4.70
2023-03-05T21:51:16.981Z,3.83
2023-03-05T21:54:18.384Z,3.83
2023-03-05T21:57:20.227Z,4.05
2023-03-05T22:00:23.122Z,3.35
2023-03-05T22:03:24.833Z,4.75
2023-03-05T22:06:26.147Z,3.65
2023-03-05T22:09:27.472Z,4.53
2023-03-05T22:12:55.548Z,3.90
2023-03-05T22:15:59.466Z,5.00
2023-03-05T22:19:00.764Z,3.50
2023-03-05T22:22:02.085Z,4.13
2023-03-05T22:25:04.271Z,4.32
2023-03-05T22:28:05.990Z,3.25
2023-03-05T22:31:07.366Z,3.80
2023-03-05T22:34:08.710Z,3.60
2023-03-05T22:37:10.055Z,3.38
2023-03-05T22:40:15.439Z,4.15
2023-03-05T22:43:17.392Z,4.10
2023-03-05T22:46:20.711Z,4.18
2023-03-05T22:49:22.094Z,4.57
2023-03-05T22:52:23.383Z,3.88
2023-03-05T22:55:24.706Z,5.10
2023-03-05T22:58:25.994Z,4.25
2023-03-05T23:01:27.402Z,5.05
2023-03-05T23:04:49.293Z,3.40
2023-03-05T23:07:50.802Z,4.78
2023-03-05T23:10:52.126Z,4.57
2023-03-05T23:13:53.384Z,3.97
2023-03-05T23:16:54.727Z,4.47
2023-03-05T23:19:56.010Z,4.35
2023-03-05T23:22:57.391Z,4.03
2023-03-05T23:25:58.729Z,2.95
2023-03-05T23:29:00.053Z,3.92
2023-03-05T23:32:01.381Z,2.88
2023-03-05T23:35:02.828Z,4.10
2023-03-05T23:38:05.923Z,3.95
2023-03-05T23:41:08.165Z,4.40
2023-03-05T23:44:09.461Z,2.95
2023-03-05T23:47:10.780Z,5.53
2023-03-05T23:50:13.543Z,3.90
2023-03-05T23:53:20.034Z,4.45
2023-03-05T23:56:21.292Z,3.95
2023-03-05T23:59:22.584Z,4.53
